createdAt,value
2023-03-05T00:01:24.928Z,15.00
2023-03-05T00:03:54.381Z,15.20
2023-03-05T00:06:23.320Z,12.73
2023-03-05T00:08:51.928Z,12.73
2023-03-05T00:11:20.626Z,11.52
2023-03-05T00:13:48.114Z,13.50
2023-03-05T00:16:16.207Z,12.88
2023-03-05T00:18:44.813Z,12.43
2023-03-05T00:21:25.988Z,14.82
2023-03-05T00:23:54.125Z,13.25
2023-03-05T00:26:23.838Z,13.45
2023-03-05T00:28:51.806Z,14.00
2023-03-05T00:31:25.899Z,12.52
2023-03-05T00:33:54.957Z,14.25
2023-03-05T00:36:24.431Z,12.18
2023-03-05T00:38:52.486Z,14.55
2023-03-05T00:41:20.249Z,13.90
2023-03-05T00:43:48.020Z,11.10
2023-03-05T00:46:15.837Z,14.20
2023-03-05T00:48:43.474Z,9.90
2023-03-05T00:51:11.619Z,9.70
2023-03-05T00:53:39.343Z,13.18
2023-03-05T00:56:07.178Z,12.45
2023-03-05T00:58:34.989Z,11.90
2023-03-05T01:01:02.883Z,12.18
2023-03-05T01:03:31.617Z,12.07
2023-03-05T01:05:59.814Z,10.00
2023-03-05T01:08:27.971Z,11.30
2023-03-05T01:10:55.419Z,11.25
2023-03-05T01:13:23.138Z,10.60
2023-03-05T01:15:51.168Z,11.12
2023-03-05T01:18:19.917Z,9.60
2023-03-05T01:20:47.919Z,9.98
2023-03-05T01:23:15.785Z,11.73
2023-03-05T01:25:43.271Z,12.27
2023-03-05T01:28:11.462Z,10.93
2023-03-05T01:30:38.812Z,12.48
2023-03-05T01:33:06.233Z,14.20
2023-03-05T01:35:34.010Z,13.65
2023-03-05T01:38:01.499Z,13.43
2023-03-05T01:40:30.919Z,14.23
2023-03-05T01:43:23.877Z,12.10
2023-03-05T01:46:13.130Z,14.90
2023-03-05T01:48:43.009Z,11.45
2023-03-05T01:51:10.552Z,10.93
2023-03-05T01:53:38.071Z,11.20
2023-03-05T01:56:05.963Z,14.45
2023-03-05T01:58:33.587Z,12.80
2023-03-05T02:01:02.086Z,11.00
2023-03-05T02:03:30.061Z,11.65
2023-03-05T02:05:57.456Z,13.40
2023-03-05T02:08:24.894Z,15.57
2023-03-05T02:10:56.638Z,11.73
2023-03-05T02:13:29.927Z,14.47
2023-03-05T02:15:59.441Z,13.02
2023-03-05T02:18:27.597Z,11.75
2023-03-05T02:20:57.678Z,13.23
2023-03-05T02:23:27.753Z,14.43
2023-03-05T02:25:55.182Z,11.63
2023-03-05T02:28:24.942Z,11.15
2023-03-05T02:30:52.577Z,12.45
2023-03-05T02:33:20.521Z,14.70
2023-03-05T02:35:48.322Z,15.05
2023-03-05T02:38:18.582Z,10.52
2023-03-05T02:40:46.103Z,11.27
2023-03-05T02:43:13.754Z,13.32
2023-03-05T02:45:41.603Z,12.95
2023-03-05T02:48:08.974Z,12.13
2023-03-05T02:50:36.759Z,12.90
2023-03-05T02:53:04.572Z,10.82
2023-03-05T02:55:32.085Z,12.27
2023-03-05T02:58:00.369Z,14.80
2023-03-05T03:00:28.730Z,15.13
2023-03-05T03:02:56.216Z,11.12
2023-03-05T03:05:24.029Z,13.62
2023-03-05T03:07:51.743Z,11.63
2023-03-05T03:10:19.172Z,12.90
2023-03-05T03:12:46.608Z,13.15
2023-03-05T03:15:15.757Z,13.02
2023-03-05T03:17:43.344Z,26.95
2023-03-05T03:20:14.090Z,34.58
2023-03-05T03:22:42.930Z,37.67
2023-03-05T03:25:14.181Z,41.37
2023-03-05T03:27:41.851Z,27.67
2023-03-05T03:30:09.960Z,27.83
2023-03-05T03:32:37.402Z,25.10
2023-03-05T03:35:06.137Z,16.98
2023-03-05T03:37:33.534Z,14.85
2023-03-05T03:40:00.971Z,13.70
2023-03-05T03:42:28.608Z,11.93
2023-03-05T03:44:55.949Z,12.52
2023-03-05T03:47:23.329Z,17.23
2023-03-05T03:49:54.161Z,12.82
2023-03-05T03:52:22.920Z,14.57
2023-03-05T03:54:52.425Z,14.38
2023-03-05T03:57:19.824Z,9.57
2023-03-05T03:59:47.603Z,10.02
2023-03-05T04:02:15.299Z,11.45
2023-03-05T04:04:43.010Z,10.57
2023-03-05T04:07:10.563Z,11.73
2023-03-05T04:09:38.070Z,10.23
2023-03-05T04:12:05.973Z,12.55
2023-03-05T04:14:33.613Z,12.05
2023-03-05T04:17:00.977Z,13.05
2023-03-05T04:19:30.684Z,11.00
2023-03-05T04:21:59.009Z,10.60
2023-03-05T04:24:26.514Z,11.57
2023-03-05T04:26:54.306Z,12.93
2023-03-05T04:29:21.678Z,14.10
2023-03-05T04:31:49.063Z,13.40
2023-03-05T04:34:16.810Z,11.10
2023-03-05T04:36:44.493Z,13.62
2023-03-05T04:39:11.952Z,14.57
2023-03-05T04:41:39.681Z,13.23
2023-03-05T04:44:07.184Z,15.35
2023-03-05T04:46:34.572Z,13.10
2023-03-05T04:49:02.236Z,14.38
2023-03-05T04:51:29.669Z,17.27
2023-03-05T04:53:57.219Z,11.68
2023-03-05T04:56:24.877Z,14.52
2023-03-05T04:58:52.399Z,13.82
2023-03-05T05:01:20.326Z,11.75
2023-03-05T05:03:48.088Z,11.00
2023-03-05T05:06:15.559Z,11.27
2023-03-05T05:08:43.502Z,15.00
2023-03-05T05:11:13.973Z,12.15
2023-03-05T05:13:41.353Z,43.38
2023-03-05T05:16:09.147Z,67.15
2023-03-05T05:18:36.815Z,45.83
2023-03-05T05:21:11.702Z,32.72
2023-03-05T05:23:39.412Z,22.67
2023-03-05T05:26:08.706Z,44.22
2023-03-05T05:28:38.257Z,40.72
2023-03-05T05:31:14.384Z,29.92
2023-03-05T05:33:42.227Z,26.60
2023-03-05T05:36:13.519Z,17.15
2023-03-05T05:38:41.040Z,16.08
2023-03-05T05:41:11.844Z,13.57
2023-03-05T05:43:40.260Z,13.68
2023-03-05T05:46:11.549Z,17.52
2023-03-05T05:48:39.602Z,23.57
2023-03-05T05:51:10.362Z,16.02
2023-03-05T05:53:38.219Z,16.42
2023-03-05T05:56:07.196Z,15.23
2023-03-05T05:58:34.893Z,16.58
2023-03-05T06:01:03.057Z,17.35
2023-03-05T06:03:31.030Z,14.30
2023-03-05T06:05:58.877Z,14.90
2023-03-05T06:08:26.222Z,14.98
2023-03-05T06:10:55.282Z,14.90
2023-03-05T06:13:22.938Z,20.42
2023-03-05T06:16:01.174Z,25.00
2023-03-05T06:18:28.966Z,29.75
2023-03-05T06:20:58.042Z,26.48
2023-03-05T06:23:26.247Z,23.50
2023-03-05T06:25:54.252Z,32.08
2023-03-05T06:28:22.185Z,25.08
2023-03-05T06:30:49.729Z,21.67
2023-03-05T06:33:17.691Z,14.68
2023-03-05T06:35:45.049Z,15.30
2023-03-05T06:38:12.407Z,14.38
2023-03-05T06:40:40.037Z,15.77
2023-03-05T06:43:07.688Z,17.52
2023-03-05T06:45:35.115Z,14.45
2023-03-05T06:48:02.786Z,14.50
2023-03-05T06:50:30.196Z,13.15
2023-03-05T06:52:57.582Z,15.25
2023-03-05T06:55:25.209Z,13.32
2023-03-05T06:57:52.613Z,22.62
2023-03-05T07:00:20.515Z,33.92
2023-03-05T07:02:48.260Z,29.98
2023-03-05T07:05:15.710Z,22.80
2023-03-05T07:07:43.120Z,19.48
2023-03-05T07:10:11.359Z,15.07
2023-03-05T07:12:38.824Z,25.95
2023-03-05T07:15:06.983Z,17.67
2023-03-05T07:17:34.589Z,21.20
2023-03-05T07:20:01.967Z,18.80
2023-03-05T07:22:29.325Z,17.55
2023-03-05T07:24:57.015Z,15.98
2023-03-05T07:27:25.550Z,15.38
2023-03-05T07:29:52.875Z,16.80
2023-03-05T07:32:20.614Z,14.32
2023-03-05T07:34:48.069Z,16.37
2023-03-05T07:37:15.472Z,17.05
2023-03-05T07:39:43.584Z,14.93
2023-03-05T07:42:11.932Z,16.95
2023-03-05T07:44:46.201Z,15.60
2023-03-05T07:47:13.824Z,15.48
2023-03-05T07:49:41.682Z,15.68
2023-03-05T07:52:09.817Z,15.68
2023-03-05T07:54:39.247Z,16.27
2023-03-05T07:57:08.156Z,14.90
2023-03-05T07:59:35.793Z,18.77
2023-03-05T08:02:03.223Z,20.10
2023-03-05T08:04:31.947Z,19.77
2023-03-05T08:06:59.866Z,13.98
2023-03-05T08:09:28.272Z,16.12
2023-03-05T08:11:56.605Z,15.98
2023-03-05T08:14:23.977Z,14.48
2023-03-05T08:16:52.313Z,17.30
2023-03-05T08:19:20.361Z,17.12
2023-03-05T08:21:47.984Z,14.65
2023-03-05T08:24:15.530Z,18.70
2023-03-05T08:26:43.665Z,17.65
2023-03-05T08:29:11.128Z,19.17
2023-03-05T08:31:39.248Z,21.77
2023-03-05T08:34:07.168Z,19.08
2023-03-05T08:36:34.582Z,25.48
2023-03-05T08:39:02.221Z,20.83
2023-03-05T08:41:29.861Z,16.52
2023-03-05T08:43:57.338Z,15.20
2023-03-05T08:46:24.996Z,17.73
2023-03-05T08:48:52.748Z,15.32
2023-03-05T08:51:25.764Z,17.55
2023-03-05T08:53:55.699Z,14.55
2023-03-05T08:56:23.079Z,18.20
2023-03-05T08:58:52.424Z,17.25
2023-03-05T09:01:20.278Z,14.45
2023-03-05T09:03:47.677Z,19.40
2023-03-05T09:06:15.098Z,16.30
2023-03-05T09:08:42.834Z,12.60
2023-03-05T09:11:12.178Z,15.93
2023-03-05T09:13:39.803Z,14.93
2023-03-05T09:16:11.008Z,17.62
2023-03-05T09:18:40.134Z,15.93
2023-03-05T09:21:12.672Z,19.35
2023-03-05T09:23:40.531Z,14.65
2023-03-05T09:26:09.517Z,15.23
2023-03-05T09:28:36.928Z,14.63
2023-03-05T09:31:06.069Z,16.90
2023-03-05T09:33:34.260Z,16.25
2023-03-05T09:36:02.525Z,17.37
2023-03-05T09:38:29.968Z,15.90
2023-03-05T09:41:02.347Z,12.80
2023-03-05T09:44:04.954Z,13.10
2023-03-05T09:46:47.323Z,14.75
2023-03-05T09:49:32.393Z,15.02
2023-03-05T09:52:21.657Z,19.25
2023-03-05T09:54:56.643Z,18.65
2023-03-05T09:57:29.211Z,15.68
2023-03-05T10:00:08.751Z,17.37
2023-03-05T10:02:48.155Z,15.48
2023-03-05T10:05:43.645Z,19.95
2023-03-05T10:08:12.194Z,15.38
2023-03-05T10:10:59.961Z,18.08
2023-03-05T10:13:33.433Z,16.52
2023-03-05T10:16:27.645Z,14.27
2023-03-05T10:19:01.122Z,14.45
2023-03-05T10:21:32.640Z,14.05
2023-03-05T10:24:16.237Z,13.70
2023-03-05T10:26:47.207Z,15.52
2023-03-05T10:29:20.843Z,13.30
2023-03-05T10:32:03.873Z,13.85
2023-03-05T10:35:09.001Z,14.15
2023-03-05T10:37:42.673Z,11.93
2023-03-05T10:40:38.028Z,13.05
2023-03-05T10:43:31.252Z,12.07
2023-03-05T10:45:59.081Z,12.07
2023-03-05T10:48:44.896Z,17.20
2023-03-05T10:51:15.623Z,12.57
2023-03-05T10:53:54.111Z,12.48
2023-03-05T10:56:23.194Z,11.88
2023-03-05T10:58:52.686Z,10.68
2023-03-05T11:01:22.138Z,13.77
2023-03-05T11:03:57.883Z,13.27
2023-03-05T11:06:31.518Z,12.18
2023-03-05T11:09:19.877Z,11.80
2023-03-05T11:12:20.412Z,11.27
2023-03-05T11:15:14.492Z,12.68
2023-03-05T11:17:44.788Z,11.12
2023-03-05T11:20:27.524Z,11.68
2023-03-05T11:23:16.267Z,15.98
2023-03-05T11:26:12.838Z,14.40
2023-03-05T11:28:56.621Z,13.77
2023-03-05T11:31:27.309Z,12.68
2023-03-05T11:34:08.001Z,12.00
2023-03-05T11:36:42.853Z,15.70
2023-03-05T11:39:16.491Z,10.73
2023-03-05T11:41:48.990Z,11.25
2023-03-05T11:44:22.070Z,11.35
2023-03-05T11:46:56.107Z,11.32
2023-03-05T11:49:27.719Z,11.57
2023-03-05T11:52:16.372Z,10.98
2023-03-05T11:55:07.823Z,12.20
2023-03-05T11:57:53.573Z,11.52
2023-03-05T12:00:29.127Z,15.18
2023-03-05T12:02:58.216Z,12.88
2023-03-05T12:05:28.131Z,11.15
2023-03-05T12:07:58.670Z,12.27
2023-03-05T12:10:26.953Z,12.43
2023-03-05T12:13:18.566Z,15.85
2023-03-05T12:16:00.206Z,10.88
2023-03-05T12:18:33.694Z,7.28
2023-03-05T12:21:23.194Z,6.87
2023-03-05T12:23:53.565Z,8.40
2023-03-05T12:27:06.109Z,7.25
2023-03-05T12:29:41.009Z,7.70
2023-03-05T12:32:28.924Z,10.50
2023-03-05T12:35:06.450Z,7.85
2023-03-05T12:37:34.052Z,10.52
2023-03-05T12:40:12.672Z,9.05
2023-03-05T12:42:53.964Z,10.30
2023-03-05T12:45:21.471Z,13.85
2023-03-05T12:47:55.156Z,8.80
2023-03-05T12:50:28.424Z,8.50
2023-03-05T12:53:11.838Z,10.73
2023-03-05T12:55:48.325Z,11.20
2023-03-05T12:58:37.289Z,17.73
2023-03-05T13:01:21.569Z,13.20
2023-03-05T13:04:01.715Z,9.80
2023-03-05T13:06:34.090Z,9.98
2023-03-05T13:09:12.871Z,7.97
2023-03-05T13:11:42.625Z,9.60
2023-03-05T13:14:30.487Z,9.15
2023-03-05T13:16:58.069Z,8.88
2023-03-05T13:19:26.047Z,8.88
2023-03-05T13:22:01.593Z,11.02
2023-03-05T13:24:29.975Z,9.57
2023-03-05T13:26:57.565Z,9.13
2023-03-05T13:29:28.220Z,8.93
2023-03-05T13:31:59.059Z,7.82
2023-03-05T13:34:40.782Z,8.05
2023-03-05T13:37:16.892Z,8.35
2023-03-05T13:39:48.322Z,7.30
2023-03-05T13:42:22.642Z,7.62
2023-03-05T13:44:57.441Z,7.93
2023-03-05T13:47:29.501Z,8.85
2023-03-05T13:49:59.855Z,10.00
2023-03-05T13:52:31.521Z,32.22
2023-03-05T13:54:59.849Z,12.88
2023-03-05T13:57:51.507Z,7.57
2023-03-05T14:00:36.274Z,11.38
2023-03-05T14:03:30.296Z,8.43
2023-03-05T14:05:57.696Z,6.90
2023-03-05T14:08:26.546Z,9.60
2023-03-05T14:10:54.748Z,8.68
2023-03-05T14:13:24.414Z,7.00
2023-03-05T14:16:05.405Z,7.60
2023-03-05T14:18:32.915Z,8.45
2023-03-05T14:21:00.853Z,8.65
2023-03-05T14:23:34.222Z,8.32
2023-03-05T14:26:37.839Z,9.15
2023-03-05T14:29:15.033Z,9.95
2023-03-05T14:31:50.955Z,9.20
2023-03-05T14:34:27.318Z,10.20
2023-03-05T14:36:58.278Z,7.62
2023-03-05T14:39:39.834Z,8.38
2023-03-05T14:42:39.231Z,10.73
2023-03-05T14:45:15.581Z,10.50
2023-03-05T14:47:43.537Z,13.45
2023-03-05T14:50:22.361Z,10.70
2023-03-05T14:52:53.114Z,11.07
2023-03-05T14:55:23.017Z,10.70
2023-03-05T14:57:51.695Z,9.48
2023-03-05T15:00:21.628Z,8.63
2023-03-05T15:02:49.280Z,11.68
2023-03-05T15:05:17.785Z,10.68
2023-03-05T15:07:45.720Z,12.45
2023-03-05T15:10:16.959Z,9.93
2023-03-05T15:12:44.966Z,11.65
2023-03-05T15:15:16.146Z,10.50
2023-03-05T15:17:47.817Z,11.18
2023-03-05T15:20:19.086Z,8.77
2023-03-05T15:22:46.642Z,11.02
2023-03-05T15:25:14.436Z,11.40
2023-03-05T15:27:42.129Z,12.50
2023-03-05T15:30:18.298Z,14.20
2023-03-05T15:32:45.922Z,10.68
2023-03-05T15:35:13.348Z,9.00
2023-03-05T15:37:40.734Z,9.98
2023-03-05T15:40:09.159Z,11.10
2023-03-05T15:42:36.565Z,9.13
2023-03-05T15:45:04.264Z,8.88
2023-03-05T15:47:33.526Z,8.13
2023-03-05T15:50:01.010Z,11.10
2023-03-05T15:52:28.452Z,9.63
2023-03-05T15:54:56.241Z,9.02
2023-03-05T15:57:23.850Z,7.65
2023-03-05T15:59:51.248Z,9.73
2023-03-05T16:02:18.955Z,5.53
2023-03-05T16:04:46.723Z,9.32
2023-03-05T16:07:14.736Z,7.72
2023-03-05T16:09:46.237Z,6.68
2023-03-05T16:12:18.076Z,10.63
2023-03-05T16:14:46.102Z,9.20
2023-03-05T16:17:14.232Z,10.27
2023-03-05T16:19:44.561Z,11.07
2023-03-05T16:22:12.228Z,9.55
2023-03-05T16:24:39.932Z,8.75
2023-03-05T16:27:07.593Z,6.53
2023-03-05T16:29:35.163Z,10.60
2023-03-05T16:32:04.100Z,7.87
2023-03-05T16:34:33.597Z,7.65
2023-03-05T16:37:04.384Z,12.40
2023-03-05T16:39:32.031Z,14.45
2023-03-05T16:41:59.402Z,10.52
2023-03-05T16:44:26.830Z,11.35
2023-03-05T16:46:56.339Z,10.60
2023-03-05T16:49:24.047Z,13.23
2023-03-05T16:51:51.521Z,10.05
2023-03-05T16:54:19.188Z,11.73
2023-03-05T16:56:46.579Z,11.05
2023-03-05T16:59:14.033Z,7.60
2023-03-05T17:01:41.653Z,6.00
2023-03-05T17:04:09.067Z,7.40
2023-03-05T17:06:36.716Z,7.35
2023-03-05T17:09:04.331Z,8.50
2023-03-05T17:11:31.931Z,5.90
2023-03-05T17:13:59.339Z,8.23
2023-03-05T17:16:27.091Z,8.45
2023-03-05T17:18:54.506Z,9.52
2023-03-05T17:21:22.004Z,9.13
2023-03-05T17:23:49.746Z,6.47
2023-03-05T17:26:20.882Z,7.72
2023-03-05T17:28:48.497Z,6.57
2023-03-05T17:31:16.472Z,7.18
2023-03-05T17:33:44.084Z,12.85
2023-03-05T17:36:17.828Z,17.00
2023-03-05T17:38:47.543Z,11.93
2023-03-05T17:41:16.450Z,13.48
2023-03-05T17:43:44.169Z,11.90
2023-03-05T17:46:12.547Z,11.48
2023-03-05T17:48:40.029Z,9.32
2023-03-05T17:51:09.249Z,6.35
2023-03-05T17:53:38.882Z,7.10
2023-03-05T17:56:10.599Z,7.85
2023-03-05T17:58:38.688Z,6.22
2023-03-05T18:01:06.752Z,8.35
2023-03-05T18:03:35.377Z,6.95
2023-03-05T18:06:03.811Z,6.00
2023-03-05T18:08:31.237Z,7.12
2023-03-05T18:10:59.079Z,5.65
2023-03-05T18:13:26.445Z,5.57
2023-03-05T18:15:53.826Z,6.43
2023-03-05T18:18:21.565Z,7.25
2023-03-05T18:20:49.243Z,6.80
2023-03-05T18:23:16.591Z,4.50
2023-03-05T18:25:44.965Z,6.90
2023-03-05T18:28:13.704Z,4.47
2023-03-05T18:30:41.963Z,6.57
2023-03-05T18:33:17.455Z,5.35
2023-03-05T18:35:44.876Z,9.43
2023-03-05T18:38:12.525Z,8.40
2023-03-05T18:40:40.224Z,6.05
2023-03-05T18:43:07.601Z,5.93
2023-03-05T18:45:35.262Z,6.32
2023-03-05T18:48:02.657Z,6.30
2023-03-05T18:50:30.155Z,6.50
2023-03-05T18:52:57.901Z,6.20
2023-03-05T18:55:28.051Z,8.88
2023-03-05T18:57:55.762Z,5.12
2023-03-05T19:00:28.835Z,6.93
2023-03-05T19:02:56.874Z,6.45
2023-03-05T19:05:28.115Z,5.82
2023-03-05T19:07:56.080Z,5.72
2023-03-05T19:10:23.802Z,6.87
2023-03-05T19:13:49.005Z,7.07
2023-03-05T19:16:26.623Z,8.15
2023-03-05T19:19:19.975Z,9.35
2023-03-05T19:21:49.690Z,13.57
2023-03-05T19:24:17.484Z,11.30
2023-03-05T19:26:45.202Z,11.95
2023-03-05T19:29:12.942Z,10.30
2023-03-05T19:31:41.075Z,11.60
2023-03-05T19:34:08.542Z,10.07
2023-03-05T19:36:36.237Z,8.38
2023-03-05T19:39:05.151Z,12.57
2023-03-05T19:41:32.756Z,12.65
2023-03-05T19:44:00.622Z,12.73
2023-03-05T19:46:28.477Z,11.93
2023-03-05T19:48:55.868Z,11.55
2023-03-05T19:51:25.171Z,10.40
2023-03-05T19:56:23.508Z,11.48
2023-03-05T19:58:51.246Z,12.05
2023-03-05T20:01:21.469Z,13.62
2023-03-05T20:03:53.010Z,12.32
2023-03-05T20:06:21.499Z,16.48
2023-03-05T20:08:49.308Z,10.93
2023-03-05T20:11:17.670Z,11.98
2023-03-05T20:13:45.587Z,12.07
2023-03-05T20:16:21.729Z,12.35
2023-03-05T20:18:52.802Z,13.60
2023-03-05T20:21:23.192Z,13.68
2023-03-05T20:23:51.647Z,11.27
2023-03-05T20:26:19.597Z,13.15
2023-03-05T20:28:48.228Z,17.58
2023-03-05T20:31:19.259Z,17.70
2023-03-05T20:33:46.987Z,20.27
2023-03-05T20:36:14.382Z,20.65
2023-03-05T20:38:42.073Z,15.75
2023-03-05T20:41:12.678Z,13.98
2023-03-05T20:43:43.505Z,16.25
2023-03-05T20:46:16.476Z,16.05
2023-03-05T20:48:44.068Z,13.70
2023-03-05T20:51:19.353Z,14.15
2023-03-05T20:53:46.868Z,14.27
2023-03-05T20:56:14.647Z,17.20
2023-03-05T20:58:42.082Z,15.63
2023-03-05T21:01:09.629Z,17.20
2023-03-05T21:03:38.728Z,13.02
2023-03-05T21:06:06.629Z,13.93
2023-03-05T21:08:34.292Z,11.15
2023-03-05T21:11:06.634Z,13.18
2023-03-05T21:13:34.022Z,10.32
2023-03-05T21:16:05.986Z,11.40
2023-03-05T21:18:33.728Z,10.52
2023-03-05T21:21:01.279Z,13.38
2023-03-05T21:23:28.967Z,11.38
2023-03-05T21:25:56.593Z,12.43
2023-03-05T21:28:24.558Z,11.32
2023-03-05T21:30:53.906Z,12.55
2023-03-05T21:33:26.481Z,14.25
2023-03-05T21:35:54.793Z,10.88
2023-03-05T21:38:23.145Z,11.80
2023-03-05T21:40:51.033Z,12.05
2023-03-05T21:43:21.145Z,9.02
2023-03-05T21:45:49.219Z,12.50
2023-03-05T21:48:16.929Z,13.50
2023-03-05T21:50:46.110Z,12.02
2023-03-05T21:53:14.475Z,11.43
2023-03-05T21:56:25.360Z,10.02
2023-03-05T21:58:53.452Z,11.85
2023-03-05T22:01:21.436Z,11.93
2023-03-05T22:03:49.747Z,11.82
2023-03-05T22:06:18.215Z,11.98
2023-03-05T22:08:45.765Z,10.70
2023-03-05T22:11:15.204Z,12.37
2023-03-05T22:13:42.663Z,13.70
2023-03-05T22:16:10.341Z,14.90
2023-03-05T22:18:38.168Z,14.75
2023-03-05T22:21:13.643Z,11.52
2023-03-05T22:23:41.346Z,13.77
2023-03-05T22:26:08.736Z,13.00
2023-03-05T22:28:36.438Z,12.80
2023-03-05T22:31:04.264Z,10.43
2023-03-05T22:33:31.954Z,11.90
2023-03-05T22:35:59.509Z,11.48
2023-03-05T22:38:27.235Z,11.00
2023-03-05T22:40:54.701Z,10.10
2023-03-05T22:43:22.055Z,13.60
2023-03-05T22:45:49.826Z,9.98
2023-03-05T22:48:17.285Z,11.12
2023-03-05T22:50:44.819Z,12.00
2023-03-05T22:53:12.682Z,12.48
2023-03-05T22:55:41.428Z,11.40
2023-03-05T22:58:09.420Z,12.82
2023-03-05T23:00:37.438Z,11.95
2023-03-05T23:03:06.465Z,12.95
2023-03-05T23:05:35.183Z,12.02
2023-03-05T23:08:02.904Z,22.52
2023-03-05T23:10:30.311Z,19.83
2023-03-05T23:12:59.257Z,18.05
2023-03-05T23:15:32.088Z,19.33
2023-03-05T23:20:30.125Z,15.82
2023-03-05T23:22:58.153Z,21.15
2023-03-05T23:25:27.727Z,20.37
2023-03-05T23:27:57.939Z,18.80
2023-03-05T23:30:26.698Z,20.35
2023-03-05T23:33:04.645Z,17.00
2023-03-05T23:35:34.003Z,17.40
2023-03-05T23:38:03.913Z,17.62
2023-03-05T23:40:34.125Z,22.00
2023-03-05T23:43:01.650Z,20.33
2023-03-05T23:45:29.269Z,19.17
2023-03-05T23:47:57.268Z,17.48
2023-03-05T23:50:27.225Z,18.52
2023-03-05T23:52:54.674Z,18.70
2023-03-05T23:55:28.012Z,20.90
2023-03-05T23:57:55.976Z,17.87
